Terminal Aerodrome Forecast
Issued by NWS

Home | Current Version | Previous Version | Graphics & Text | Print | Product List | Glossary On
Versions: 1 2 3 4 5 6 7 8 9 10 11 12 13 14 15 16 17 18 19 20 21 22 23 24 25
000
FTUS43 KLOT 260852 AAA
TAFORD
TAF AMD
KORD 260852Z 2609/2712 28004KT P6SM SKC
     FM261300 22005KT P6SM FEW250
     FM261800 23009KT P6SM FEW050 BKN250
     FM270600 34015G22KT P6SM BKN020 OVC050=

USA.gov is the U.S. government's official web portal to all federal, state and local government web resources and services.